Time;durP1;ratioP1;P1;durP2;ratioP2;P2;SDS_P1;SDS_P2;PMS_P1;PMS_P2;Temp;Humidity;BMP_temperature;BMP_pressure;BME280_temperature;BME280_humidity;BME280_pressure;Samples;Min_cycle;Max_cycle;Signal;HPM_P1;HPM_P2
2022/07/29 00:02:01;;;;;;;7.75;2.20;;;;;;;18.65;55.53;101562.34;5089999;28;20132;-56
2022/07/29 00:04:28;;;;;;;5.20;2.00;;;;;;;18.64;55.44;101556.03;5081877;28;20482;-56
2022/07/29 00:06:56;;;;;;;3.60;1.90;;;;;;;18.65;55.50;101552.13;5095091;28;20494;-56
2022/07/29 00:09:24;;;;;;;5.85;2.05;;;;;;;18.65;55.61;101554.88;5084547;28;20052;-58
2022/07/29 00:11:52;;;;;;;5.45;2.05;;;;;;;18.61;55.60;101545.56;5088062;28;20479;-58
2022/07/29 00:14:19;;;;;;;4.53;2.10;;;;;;;18.57;55.87;101550.09;5092820;28;20054;-54
2022/07/29 00:16:47;;;;;;;8.68;2.03;;;;;;;18.49;55.90;101536.97;5092532;28;20482;-55
2022/07/29 00:19:15;;;;;;;5.57;1.65;;;;;;;18.48;56.19;101540.88;5095443;28;20049;-56
2022/07/29 00:21:42;;;;;;;5.10;1.98;;;;;;;18.50;56.01;101544.13;5088675;28;20051;-52
2022/07/29 00:24:10;;;;;;;5.05;1.98;;;;;;;18.41;56.33;101544.00;5090739;28;20036;-54
2022/07/29 00:26:38;;;;;;;4.35;1.98;;;;;;;18.43;56.43;101543.72;5093224;28;20032;-57
2022/07/29 00:29:05;;;;;;;4.50;2.08;;;;;;;18.41;56.43;101543.19;5090375;28;20127;-56
2022/07/29 00:31:53;;;;;;;7.80;2.28;;;;;;;18.40;56.74;101539.63;5091525;28;20037;-55
2022/07/29 00:37:15;;;;;;;4.40;1.92;;;;;;;18.35;56.82;101538.88;5061755;28;20395;-57
2022/07/29 00:39:42;;;;;;;5.85;1.85;;;;;;;18.29;57.18;101527.13;5092997;28;20036;-55
2022/07/29 00:42:10;;;;;;;6.50;2.20;;;;;;;18.29;57.20;101527.13;5081958;28;20048;-55
2022/07/29 00:44:39;;;;;;;10.93;2.30;;;;;;;18.33;57.10;101530.06;5095811;28;20039;-56
2022/07/29 00:47:07;;;;;;;10.82;2.20;;;;;;;18.34;57.07;101538.06;5088905;28;20040;-58
2022/07/29 00:49:35;;;;;;;5.47;2.53;;;;;;;18.36;57.13;101526.72;5089778;28;20052;-56
2022/07/29 00:52:04;;;;;;;6.30;2.10;;;;;;;18.40;56.82;101530.50;5093705;28;20036;-54
2022/07/29 00:54:33;;;;;;;5.82;2.58;;;;;;;18.38;57.30;101535.53;5093528;28;20036;-55
2022/07/29 00:57:01;;;;;;;5.65;1.85;;;;;;;18.38;57.48;101541.06;5087512;28;20041;-56
2022/07/29 00:59:32;;;;;;;6.32;2.03;;;;;;;18.41;57.39;101545.94;5091801;28;20036;-57
2022/07/29 01:02:02;;;;;;;5.13;2.10;;;;;;;18.37;57.58;101540.22;5090828;28;20452;-57
2022/07/29 01:04:31;;;;;;;5.93;2.20;;;;;;;18.40;57.48;101549.81;5093226;28;20067;-51
2022/07/29 01:07:00;;;;;;;5.15;1.90;;;;;;;18.43;57.45;101552.00;5082537;28;20040;-56
2022/07/29 01:09:28;;;;;;;8.00;2.30;;;;;;;18.51;57.25;101548.53;5093547;28;20379;-57
2022/07/29 01:12:16;;;;;;;5.25;2.03;;;;;;;18.52;57.30;101559.28;5080417;28;20036;-56
2022/07/29 01:14:45;;;;;;;3.78;1.88;;;;;;;18.48;57.31;101565.69;5090768;28;20040;-59
2022/07/29 01:17:33;;;;;;;5.70;1.90;;;;;;;18.52;57.52;101577.78;5092800;28;20040;-56
2022/07/29 01:20:08;;;;;;;8.00;2.55;;;;;;;18.61;57.02;101595.25;5090280;28;20052;-54
2022/07/29 01:22:41;;;;;;;3.17;1.70;;;;;;;18.70;56.75;101598.13;5086471;28;20060;-59
2022/07/29 01:25:26;;;;;;;5.13;1.88;;;;;;;18.74;56.62;101597.22;5091844;28;20044;-56
2022/07/29 01:28:03;;;;;;;6.05;2.00;;;;;;;18.76;56.65;101585.94;5093148;28;20055;-58
2022/07/29 01:30:33;;;;;;;8.50;2.40;;;;;;;18.70;56.85;101576.88;5093009;28;20048;-54
2022/07/29 01:33:03;;;;;;;6.82;2.20;;;;;;;18.68;57.11;101583.81;5087165;28;20518;-58
2022/07/29 01:35:39;;;;;;;5.90;1.98;;;;;;;18.67;57.34;101583.00;5093502;28;20038;-57
2022/07/29 01:38:17;;;;;;;13.07;2.22;;;;;;;18.64;57.82;101567.06;5103863;28;20032;-53
2022/07/29 01:40:52;;;;;;;7.13;2.15;;;;;;;18.52;58.31;101552.94;5077726;28;20044;-58
2022/07/29 01:43:23;;;;;;;4.70;2.20;;;;;;;18.50;58.27;101555.19;5087211;28;20047;-54
2022/07/29 01:46:00;;;;;;;5.60;1.95;;;;;;;18.50;58.34;101549.66;5089112;28;20504;-58
2022/07/29 01:48:31;;;;;;;7.38;2.25;;;;;;;18.50;58.38;101544.13;5081949;28;20478;-58
2022/07/29 01:51:18;;;;;;;4.85;1.83;;;;;;;18.49;58.40;101535.00;5089101;28;20044;-60
2022/07/29 01:53:54;;;;;;;10.38;2.65;;;;;;;18.46;58.86;101515.50;5093613;28;20051;-58
2022/07/29 01:56:23;;;;;;;6.38;2.10;;;;;;;18.27;59.69;101499.81;5083621;28;20410;-56
2022/07/29 01:58:52;;;;;;;8.80;2.20;;;;;;;18.16;60.45;101492.88;5086091;28;20047;-57
2022/07/29 02:01:22;;;;;;;3.53;1.90;;;;;;;18.08;61.06;101490.78;5090383;28;20127;-57
2022/07/29 02:03:50;;;;;;;6.43;2.88;;;;;;;18.07;61.67;101491.94;5084060;28;20465;-52
2022/07/29 02:06:20;;;;;;;7.28;2.25;;;;;;;18.06;62.03;101490.28;5086844;28;20048;-59
2022/07/29 02:08:48;;;;;;;6.07;2.15;;;;;;;18.05;63.07;101485.88;5092326;28;20485;-59
2022/07/29 02:11:16;;;;;;;7.97;2.30;;;;;;;18.07;64.96;101478.13;5093468;28;20052;-54
2022/07/29 02:13:45;;;;;;;4.32;2.17;;;;;;;17.91;65.93;101468.50;5094745;28;20032;-58
2022/07/29 02:16:13;;;;;;;8.02;2.80;;;;;;;17.82;67.52;101469.19;5103615;28;20043;-58
2022/07/29 02:18:42;;;;;;;5.90;1.90;;;;;;;17.78;68.29;101468.13;5080830;28;20078;-59
2022/07/29 02:21:10;;;;;;;9.63;2.63;;;;;;;17.80;68.12;101476.09;5093459;28;20584;-58
2022/07/29 02:23:42;;;;;;;5.05;2.25;;;;;;;17.88;67.71;101465.22;5094646;28;20117;-58
2022/07/29 02:26:19;;;;;;;;;;;;;;;18.01;68.16;101465.56;5086971;28;20055;-57
2022/07/29 02:28:51;;;;;;;3.90;1.80;;;;;;;17.94;68.29;101459.59;5099851;28;20354;-57
2022/07/29 02:31:29;;;;;;;7.25;2.40;;;;;;;17.96;69.18;101457.38;5098742;28;20040;-57
2022/07/29 02:33:56;;;;;;;5.28;2.13;;;;;;;17.94;69.77;101462.38;5086889;28;20551;-55
2022/07/29 02:36:24;;;;;;;4.03;1.90;;;;;;;17.91;69.87;101466.53;5080473;28;20116;-56
2022/07/29 02:38:57;;;;;;;5.10;2.38;;;;;;;17.86;70.75;101461.13;5076899;28;20051;-55
2022/07/29 02:41:31;;;;;;;5.45;2.58;;;;;;;17.67;71.90;101461.13;5085504;28;20055;-58
2022/07/29 02:44:09;;;;;;;4.65;2.40;;;;;;;17.58;72.78;101462.91;5092013;28;20051;-57
2022/07/29 02:46:41;;;;;;;5.88;2.55;;;;;;;17.45;73.37;101454.28;5092753;28;20047;-55
2022/07/29 02:49:27;;;;;;;7.07;2.45;;;;;;;17.30;74.77;101460.03;5077689;28;20436;-58
2022/07/29 02:51:58;;;;;;;6.28;2.40;;;;;;;17.24;76.03;101451.03;5090788;28;20033;-58
2022/07/29 02:54:51;;;;;;;7.90;2.58;;;;;;;17.20;76.27;101449.19;5090452;28;20048;-57
2022/07/29 02:57:34;;;;;;;5.18;2.30;;;;;;;17.19;76.44;101442.00;5082236;28;20044;-54
2022/07/29 03:00:06;;;;;;;3.70;2.20;;;;;;;17.13;76.73;101437.72;5093121;28;20041;-56
2022/07/29 03:02:39;;;;;;;9.40;2.85;;;;;;;17.15;76.72;101438.22;5091413;28;20044;-57
2022/07/29 03:05:15;;;;;;;6.03;2.47;;;;;;;17.21;76.77;101439.78;5085683;28;20048;-55
2022/07/29 03:07:46;;;;;;;6.68;2.50;;;;;;;17.19;76.64;101444.78;5092344;28;20040;-56
2022/07/29 03:10:14;;;;;;;9.25;2.75;;;;;;;17.22;76.70;101444.16;5091752;28;20056;-57
2022/07/29 03:12:42;;;;;;;3.92;1.98;;;;;;;17.19;76.82;101450.28;5085298;28;20047;-55
2022/07/29 03:15:10;;;;;;;7.35;2.60;;;;;;;17.14;76.62;101444.84;5097823;28;20489;-57
2022/07/29 03:17:38;;;;;;;9.15;3.20;;;;;;;17.16;77.14;101448.94;5082907;28;20399;-56
2022/07/29 03:20:07;;;;;;;5.50;2.38;;;;;;;17.15;77.45;101444.56;5092893;28;20036;-56
2022/07/29 03:22:46;;;;;;;5.18;2.38;;;;;;;17.16;76.87;101445.38;5088218;28;20036;-54
2022/07/29 03:25:16;;;;;;;5.10;2.13;;;;;;;17.21;76.90;101450.81;5093156;28;20044;-53
2022/07/29 03:27:44;;;;;;;5.43;2.60;;;;;;;17.20;77.17;101450.00;5077968;28;20041;-56
2022/07/29 03:30:13;;;;;;;5.72;2.35;;;;;;;17.23;77.24;101456.84;5088119;28;20047;-56
2022/07/29 03:32:48;;;;;;;6.28;2.45;;;;;;;17.26;76.80;101461.75;5086439;28;20044;-55
2022/07/29 03:35:19;;;;;;;7.38;2.63;;;;;;;17.32;76.37;101460.56;5092004;28;20040;-52
2022/07/29 03:37:47;;;;;;;6.50;2.65;;;;;;;17.33;76.28;101456.69;5092919;28;20143;-55
2022/07/29 03:40:22;;;;;;;7.97;2.50;;;;;;;17.30;76.78;101449.03;5078256;28;20044;-58
2022/07/29 03:42:50;;;;;;;5.85;2.40;;;;;;;17.32;75.81;101455.06;5090314;28;20042;-57
2022/07/29 03:45:19;;;;;;;6.68;2.60;;;;;;;17.30;76.27;101456.47;5091825;28;20032;-57
2022/07/29 03:47:50;;;;;;;5.35;2.47;;;;;;;17.26;76.42;101459.00;5090704;28;20036;-54
2022/07/29 03:50:23;;;;;;;6.90;2.70;;;;;;;17.28;76.80;101466.97;5094607;28;20050;-59
2022/07/29 03:52:51;;;;;;;6.78;2.78;;;;;;;17.36;76.29;101474.53;5090684;28;20039;-59
2022/07/29 03:55:19;;;;;;;5.70;2.50;;;;;;;17.35;76.35;101462.72;5092240;28;20048;-59
2022/07/29 03:57:47;;;;;;;5.65;2.47;;;;;;;17.34;76.29;101468.50;5086264;28;20040;-51
2022/07/29 04:00:15;;;;;;;5.07;2.35;;;;;;;17.29;76.68;101466.66;5092390;28;20074;-53
2022/07/29 04:02:47;;;;;;;6.15;2.22;;;;;;;17.29;76.40;101477.66;5093176;28;20050;-52
2022/07/29 04:05:16;;;;;;;5.10;2.50;;;;;;;17.32;76.44;101477.09;5092016;28;20097;-56
2022/07/29 04:07:45;;;;;;;4.45;2.40;;;;;;;17.35;76.12;101475.69;5092288;28;20044;-57
2022/07/29 04:10:13;;;;;;;8.63;2.70;;;;;;;17.35;76.12;101476.50;5090070;28;20060;-56
2022/07/29 04:12:40;;;;;;;6.78;2.70;;;;;;;17.36;75.76;101478.13;5088180;28;20486;-58
2022/07/29 04:15:08;;;;;;;6.57;3.00;;;;;;;17.23;76.14;101481.63;5101075;28;20047;-57
2022/07/29 04:17:36;;;;;;;8.07;2.72;;;;;;;17.05;77.17;101469.47;5083699;28;20056;-58
2022/07/29 04:20:04;;;;;;;6.88;2.63;;;;;;;16.94;78.23;101482.56;5092687;28;20066;-57
2022/07/29 04:22:32;;;;;;;6.03;2.63;;;;;;;16.85;78.13;101476.06;5089089;28;20032;-54
2022/07/29 04:24:59;;;;;;;6.88;2.70;;;;;;;16.85;78.35;101472.50;5095355;28;20161;-56
2022/07/29 04:27:30;;;;;;;7.03;2.75;;;;;;;16.72;79.31;101468.50;5091318;28;20037;-57
2022/07/29 04:29:58;;;;;;;6.05;2.80;;;;;;;16.71;79.55;101467.66;5084199;28;20394;-56
2022/07/29 04:32:26;;;;;;;4.40;2.58;;;;;;;16.80;79.67;101476.94;5094188;28;20040;-58
2022/07/29 04:34:54;;;;;;;7.70;2.83;;;;;;;16.87;79.09;101471.09;5093068;28;20040;-57
2022/07/29 04:37:21;;;;;;;6.47;2.90;;;;;;;16.86;79.10;101465.88;5095058;28;20047;-58
2022/07/29 04:39:49;;;;;;;6.13;2.55;;;;;;;16.82;79.88;101473.91;5078942;28;20071;-56
2022/07/29 04:42:16;;;;;;;8.95;2.83;;;;;;;16.82;80.00;101482.16;5088092;28;20047;-57
2022/07/29 04:44:53;;;;;;;11.63;3.40;;;;;;;16.86;79.43;101477.72;5094722;28;20064;-56
2022/07/29 04:47:20;;;;;;;4.63;2.80;;;;;;;16.81;79.76;101477.75;5095780;28;20050;-59
2022/07/29 04:49:48;;;;;;;6.40;2.90;;;;;;;16.66;80.15;101475.16;5095010;28;20044;-59
2022/07/29 04:52:15;;;;;;;5.18;2.90;;;;;;;16.58;80.78;101474.69;5093706;28;20039;-58
2022/07/29 04:54:43;;;;;;;6.57;3.00;;;;;;;16.47;81.06;101478.66;5093941;28;20043;-59
2022/07/29 04:57:10;;;;;;;6.13;2.80;;;;;;;16.52;81.46;101492.34;5087538;28;20036;-57
2022/07/29 04:59:38;;;;;;;5.15;2.45;;;;;;;16.71;80.65;101505.38;5095744;28;20036;-58
2022/07/29 05:02:06;;;;;;;7.55;2.78;;;;;;;16.88;79.42;101504.94;5094923;28;20406;-59
2022/07/29 05:04:33;;;;;;;5.00;2.50;;;;;;;17.02;78.82;101506.66;5087805;28;20040;-57
2022/07/29 05:07:01;;;;;;;7.70;3.17;;;;;;;17.08;78.26;101507.44;5086264;28;20040;-58
2022/07/29 05:09:28;;;;;;;7.72;2.95;;;;;;;16.93;78.50;101500.19;5094505;28;20056;-54
2022/07/29 05:11:56;;;;;;;5.15;2.53;;;;;;;16.73;79.75;101503.97;5079721;28;20048;-58
2022/07/29 05:14:24;;;;;;;6.32;3.15;;;;;;;16.66;80.58;101509.00;5092462;28;20036;-59
2022/07/29 05:16:52;;;;;;;6.47;2.83;;;;;;;16.70;80.80;101506.50;5098075;28;20401;-56
2022/07/29 05:19:20;;;;;;;10.15;3.10;;;;;;;16.79;80.50;101515.78;5087558;28;20406;-58
2022/07/29 05:21:47;;;;;;;7.72;3.20;;;;;;;16.75;79.18;101518.25;5094213;28;20066;-59
2022/07/29 05:24:16;;;;;;;8.93;3.15;;;;;;;16.59;80.08;101509.34;5090091;28;20452;-60
2022/07/29 05:26:44;;;;;;;7.28;3.10;;;;;;;16.48;81.05;101518.81;5092850;28;20469;-58
2022/07/29 05:29:11;;;;;;;6.88;2.60;;;;;;;16.50;80.72;101522.13;5088523;28;20047;-57
2022/07/29 05:31:59;;;;;;;7.18;3.00;;;;;;;16.58;80.75;101521.47;5089658;28;20040;-59
2022/07/29 05:34:26;;;;;;;5.75;3.05;;;;;;;16.54;80.63;101512.16;5080273;28;20071;-59
2022/07/29 05:36:54;;;;;;;7.75;3.15;;;;;;;16.53;80.56;101516.03;5084894;28;20048;-57
2022/07/29 05:39:22;;;;;;;9.77;3.45;;;;;;;16.46;80.53;101510.03;5093928;28;20036;-56
2022/07/29 05:42:10;;;;;;;7.68;2.72;;;;;;;16.32;81.21;101517.34;5085124;28;20059;-57
2022/07/29 05:44:39;;;;;;;7.25;2.67;;;;;;;16.43;81.29;101524.38;5087385;28;20442;-57
2022/07/29 05:47:06;;;;;;;8.27;3.33;;;;;;;16.54;80.45;101527.84;4383141;28;9999934;-58
2022/07/29 05:49:34;;;;;;;7.97;3.38;;;;;;;16.56;80.13;101526.44;5082124;28;20044;-54
2022/07/29 05:52:02;;;;;;;9.75;3.55;;;;;;;16.60;79.48;101529.44;5089414;28;20046;-55
2022/07/29 05:54:30;;;;;;;8.15;3.60;;;;;;;16.51;80.04;101529.25;5080907;28;20465;-59
2022/07/29 05:56:58;;;;;;;7.65;3.20;;;;;;;16.36;80.72;101527.47;5082406;28;20490;-57
2022/07/29 05:59:25;;;;;;;7.00;3.35;;;;;;;16.28;81.15;101530.00;5090538;28;20412;-57
2022/07/29 06:01:57;;;;;;;5.13;2.95;;;;;;;16.27;81.07;101528.38;5090392;28;20093;-57
2022/07/29 06:04:25;;;;;;;7.03;3.13;;;;;;;16.30;81.00;101528.63;5087832;28;20135;-57
2022/07/29 06:06:52;;;;;;;6.80;2.70;;;;;;;16.33;81.05;101527.22;5084756;28;20071;-56
2022/07/29 06:09:20;;;;;;;5.97;2.92;;;;;;;16.40;80.72;101527.69;5082996;28;20052;-60
2022/07/29 06:11:48;;;;;;;4.97;2.67;;;;;;;16.50;79.75;101535.88;5089915;28;20040;-61
2022/07/29 06:14:15;;;;;;;7.15;3.20;;;;;;;16.55;79.86;101530.31;5089312;28;20036;-57
2022/07/29 06:16:43;;;;;;;6.05;3.03;;;;;;;16.60;79.63;101526.69;5100991;28;20074;-57
2022/07/29 06:19:11;;;;;;;10.23;3.30;;;;;;;16.51;78.14;101529.25;5088699;28;20055;-58
2022/07/29 06:21:43;;;;;;;8.48;3.25;;;;;;;16.34;79.10;101528.88;5088482;28;20040;-59
2022/07/29 06:24:12;;;;;;;8.85;3.10;;;;;;;16.30;79.88;101533.28;5087434;28;20044;-59
2022/07/29 06:26:41;;;;;;;7.65;3.10;;;;;;;16.38;79.76;101533.50;5074688;28;20050;-59
2022/07/29 06:29:12;;;;;;;7.60;3.00;;;;;;;16.48;79.45;101529.84;5088945;28;20040;-59
2022/07/29 06:31:40;;;;;;;9.38;3.17;;;;;;;16.57;78.91;101524.50;5077759;28;20046;-59
2022/07/29 06:34:07;;;;;;;8.10;2.85;;;;;;;16.48;78.89;101527.09;5080975;28;20514;-60
2022/07/29 06:36:36;;;;;;;22.30;5.97;;;;;;;16.50;79.04;101532.28;5088002;28;20497;-56
2022/07/29 06:39:07;;;;;;;9.63;3.88;;;;;;;16.49;79.02;101525.97;5088689;28;20044;-58
2022/07/29 06:41:35;;;;;;;10.98;3.45;;;;;;;16.55;79.25;101526.75;5089589;28;20482;-57
2022/07/29 06:44:09;;;;;;;11.68;3.55;;;;;;;16.57;78.77;101522.59;5079872;28;20128;-58
2022/07/29 06:46:37;;;;;;;14.48;4.63;;;;;;;16.65;78.57;101523.88;5086933;28;20045;-57
2022/07/29 06:49:05;;;;;;;8.63;3.60;;;;;;;16.62;78.91;101535.47;5090703;28;20471;-58
2022/07/29 06:51:33;;;;;;;8.43;3.78;;;;;;;16.61;79.02;101540.13;5079536;28;20491;-57
2022/07/29 06:54:01;;;;;;;13.32;4.22;;;;;;;16.68;79.07;101538.97;5091285;28;20496;-54
2022/07/29 06:56:37;;;;;;;6.75;3.30;;;;;;;16.75;79.48;101533.94;5089399;28;20043;-57
2022/07/29 06:59:08;;;;;;;8.95;3.50;;;;;;;16.74;78.47;101533.13;5086343;28;20483;-56
2022/07/29 07:01:37;;;;;;;8.90;3.95;;;;;;;16.67;78.20;101529.91;5078598;28;20051;-53
2022/07/29 07:04:05;;;;;;;9.98;3.55;;;;;;;16.65;78.26;101534.06;5077376;28;20043;-57
2022/07/29 07:06:32;;;;;;;8.85;3.83;;;;;;;16.61;78.60;101534.63;5091495;28;20486;-55
2022/07/29 07:09:00;;;;;;;7.72;4.00;;;;;;;16.67;78.83;101537.31;5086756;28;20033;-54
2022/07/29 07:11:28;;;;;;;7.25;3.42;;;;;;;16.73;78.50;101536.97;5091724;28;20051;-55
2022/07/29 07:13:55;;;;;;;10.20;3.75;;;;;;;16.76;78.34;101533.66;5086251;28;20495;-56
2022/07/29 07:16:30;;;;;;;8.63;4.13;;;;;;;16.77;78.50;101532.53;5079415;28;20048;-57
2022/07/29 07:18:58;;;;;;;7.55;3.85;;;;;;;16.79;78.64;101529.53;5086476;28;20042;-56
2022/07/29 07:21:26;;;;;;;9.25;3.50;;;;;;;16.79;78.56;101535.88;5095647;28;20489;-55
2022/07/29 07:23:57;;;;;;;7.78;4.10;;;;;;;16.83;77.66;101541.59;5090109;28;20513;-56
2022/07/29 07:26:25;;;;;;;7.72;3.70;;;;;;;16.90;77.69;101533.78;5091901;28;20402;-58
2022/07/29 07:28:52;;;;;;;7.60;3.90;;;;;;;16.95;77.81;101533.72;5096352;28;20063;-57
2022/07/29 07:31:20;;;;;;;8.65;4.13;;;;;;;16.96;77.29;101534.56;5093960;28;20044;-56
2022/07/29 07:33:48;;;;;;;7.90;3.80;;;;;;;16.93;78.32;101536.00;5094231;28;20068;-57
2022/07/29 07:36:15;;;;;;;9.73;3.95;;;;;;;16.93;78.10;101536.00;5096341;28;20086;-57
2022/07/29 07:38:43;;;;;;;11.90;4.32;;;;;;;16.94;78.24;101542.31;5093722;28;20051;-55
2022/07/29 07:41:11;;;;;;;12.68;4.22;;;;;;;17.00;77.88;101541.97;5089977;28;20044;-56
2022/07/29 07:43:39;;;;;;;11.35;4.53;;;;;;;16.95;77.75;101542.00;5078574;28;20410;-56
2022/07/29 07:46:06;;;;;;;7.03;3.78;;;;;;;17.02;78.01;101544.41;5089565;28;20032;-49
2022/07/29 07:48:35;;;;;;;10.00;3.97;;;;;;;17.05;77.60;101543.81;5094368;28;20113;-53
2022/07/29 07:51:03;;;;;;;8.52;3.78;;;;;;;17.09;77.55;101546.81;5094148;28;20407;-52
2022/07/29 07:53:31;;;;;;;11.95;4.22;;;;;;;17.13;77.00;101556.13;5092401;28;20043;-50
2022/07/29 07:55:59;;;;;;;9.02;3.72;;;;;;;17.16;76.73;101541.75;5092386;28;20067;-54
2022/07/29 07:58:38;;;;;;;10.55;3.83;;;;;;;17.12;76.59;101538.75;5086085;28;20044;-57
2022/07/29 08:01:06;;;;;;;6.35;3.35;;;;;;;17.18;76.44;101547.78;5095643;28;20524;-59
2022/07/29 08:03:34;;;;;;;6.63;3.67;;;;;;;17.20;76.50;101540.88;5094007;28;20445;-55
2022/07/29 08:06:02;;;;;;;9.27;3.70;;;;;;;17.21;76.33;101553.50;5092855;28;20462;-57
2022/07/29 08:08:30;;;;;;;7.20;3.45;;;;;;;17.19;76.65;101557.69;5094380;28;20048;-54
2022/07/29 08:10:58;;;;;;;12.15;3.60;;;;;;;17.23;76.79;101561.50;5095755;28;20050;-57
2022/07/29 08:13:31;;;;;;;9.27;3.35;;;;;;;17.30;76.39;101567.47;5090034;28;20051;-58
2022/07/29 08:16:01;;;;;;;8.40;3.63;;;;;;;17.41;75.73;101570.88;5094592;28;20051;-58
2022/07/29 08:18:30;;;;;;;4.90;3.30;;;;;;;17.48;75.57;101574.09;5084517;28;20094;-57
2022/07/29 08:20:58;;;;;;;6.65;2.95;;;;;;;17.53;75.31;101575.97;5081875;28;20046;-52
2022/07/29 08:23:38;;;;;;;9.82;3.20;;;;;;;17.52;75.00;101569.66;5093343;28;20093;-57
2022/07/29 08:26:15;;;;;;;6.50;3.28;;;;;;;17.55;74.97;101573.75;5094239;28;20040;-50
2022/07/29 08:28:49;;;;;;;9.25;3.97;;;;;;;17.59;74.75;101572.84;5085270;28;20051;-59
2022/07/29 08:31:17;;;;;;;8.07;3.95;;;;;;;17.66;75.09;101564.22;5094442;28;20432;-59
2022/07/29 08:33:45;;;;;;;13.57;4.45;;;;;;;17.66;74.61;101564.22;5094158;28;20521;-58
2022/07/29 08:36:13;;;;;;;10.75;3.97;;;;;;;17.69;74.54;101563.63;5094892;28;20402;-58
2022/07/29 08:38:41;;;;;;;9.13;4.00;;;;;;;17.71;74.35;101566.09;5086901;28;20122;-58
2022/07/29 08:41:08;;;;;;;9.73;4.07;;;;;;;17.74;74.08;101566.31;5092534;28;20051;-58
2022/07/29 08:43:37;;;;;;;6.40;3.25;;;;;;;17.76;73.89;101569.59;5089965;28;20048;-59
2022/07/29 08:46:05;;;;;;;13.52;4.43;;;;;;;17.81;73.49;101561.25;5094705;28;20044;-57
2022/07/29 08:48:34;;;;;;;9.60;4.03;;;;;;;17.83;73.52;101559.03;5095138;28;20502;-58
2022/07/29 08:51:02;;;;;;;8.93;4.07;;;;;;;17.87;73.22;101553.72;5092588;28;20123;-55
2022/07/29 08:53:31;;;;;;;7.28;3.30;;;;;;;17.94;73.15;101553.34;5092657;28;20074;-58
2022/07/29 08:55:59;;;;;;;10.73;3.78;;;;;;;18.01;73.14;101559.31;5093346;28;20051;-58
2022/07/29 08:58:29;;;;;;;10.57;3.80;;;;;;;18.04;73.57;101558.72;5093462;28;20032;-58
2022/07/29 09:00:57;;;;;;;7.88;3.95;;;;;;;18.10;73.17;101558.31;5095702;28;20040;-54
2022/07/29 09:03:31;;;;;;;10.10;3.65;;;;;;;18.18;72.66;101553.22;5091172;28;20036;-55
2022/07/29 09:05:59;;;;;;;13.57;4.63;;;;;;;18.23;72.81;101551.22;5092345;28;20044;-58
2022/07/29 09:08:27;;;;;;;6.47;3.72;;;;;;;18.24;72.29;101552.03;5079168;28;20046;-55
2022/07/29 09:10:55;;;;;;;11.88;4.28;;;;;;;18.26;71.66;101549.81;5094709;28;20052;-57
2022/07/29 09:13:23;;;;;;;6.38;3.47;;;;;;;18.29;71.63;101544.47;5092915;28;20059;-58
2022/07/29 09:15:51;;;;;;;8.63;3.72;;;;;;;18.31;71.76;101550.53;5095519;28;20051;-56
2022/07/29 09:18:51;;;;;;;9.02;3.42;;;;;;;18.41;72.05;101549.53;5091918;28;20055;-56
2022/07/29 09:24:09;;;;;;;8.10;3.20;;;;;;;18.58;70.27;101543.44;5094260;28;20044;-54
2022/07/29 09:26:44;;;;;;;11.70;3.40;;;;;;;18.64;70.76;101544.97;5094169;28;20048;-58
2022/07/29 09:29:20;;;;;;;7.28;3.33;;;;;;;18.69;70.22;101550.41;5090828;28;20040;-59
2022/07/29 09:31:48;;;;;;;;;;;;;;;18.73;70.02;101548.66;5084570;28;20045;-57
2022/07/29 09:34:25;;;;;;;8.38;4.03;;;;;;;18.81;70.45;101557.38;5092723;28;19973;-59
2022/07/29 09:36:53;;;;;;;;;;;;;;;18.90;70.02;101558.31;5090659;28;20051;-58
2022/07/29 09:39:35;;;;;;;7.65;3.80;;;;;;;18.97;69.13;101553.19;5093962;28;19923;-59
2022/07/29 09:42:05;;;;;;;8.98;3.92;;;;;;;19.02;69.04;101560.56;5087468;28;20442;-58
2022/07/29 09:44:48;;;;;;;11.27;3.83;;;;;;;19.06;68.72;101567.94;5093600;28;20036;-55
2022/07/29 09:47:18;;;;;;;6.32;3.10;;;;;;;19.08;68.34;101557.38;5092134;28;20050;-59
2022/07/29 09:49:59;;;;;;;10.45;3.10;;;;;;;19.10;68.94;101552.38;5092356;28;20126;-58
2022/07/29 09:52:28;;;;;;;9.40;3.03;;;;;;;19.18;70.10;101559.13;5079222;28;20039;-55
2022/07/29 09:55:07;;;;;;;10.30;3.10;;;;;;;19.27;67.41;101565.56;5088010;28;20514;-58
2022/07/29 09:57:35;;;;;;;7.90;3.50;;;;;;;19.41;65.83;101565.56;5078678;28;20563;-58
2022/07/29 10:00:12;;;;;;;7.07;3.30;;;;;;;19.46;64.85;101564.59;5081125;28;20043;-56
2022/07/29 10:02:42;;;;;;;7.43;3.42;;;;;;;19.49;65.08;101564.81;5083528;28;20067;-52
2022/07/29 10:05:36;;;;;;;6.20;2.85;;;;;;;19.53;65.11;101560.31;5084888;28;20040;-52
2022/07/29 10:08:04;;;;;;;8.38;2.72;;;;;;;19.69;64.03;101557.22;5081059;28;20047;-51
2022/07/29 10:10:34;;;;;;;6.15;3.28;;;;;;;19.82;63.64;101564.66;5092658;28;20052;-52
2022/07/29 10:13:04;;;;;;;7.78;3.42;;;;;;;19.90;62.81;101557.56;5092184;28;20071;-53
2022/07/29 10:15:40;;;;;;;8.25;3.45;;;;;;;19.95;61.17;101562.97;5089349;28;20040;-53
2022/07/29 10:18:09;;;;;;;12.57;3.30;;;;;;;19.92;61.90;101556.13;5076100;28;20040;-58
2022/07/29 10:20:37;;;;;;;11.23;3.55;;;;;;;20.05;58.24;101559.13;5085855;28;20036;-54
2022/07/29 10:23:05;;;;;;;12.25;3.30;;;;;;;20.18;58.76;101559.06;5078772;28;20498;-56
2022/07/29 10:25:33;;;;;;;6.72;3.30;;;;;;;20.23;57.61;101560.91;5091278;28;20146;-57
2022/07/29 10:28:01;;;;;;;7.82;3.92;;;;;;;20.19;59.37;101555.16;5079667;28;20148;-56
2022/07/29 10:30:28;;;;;;;20.35;9.60;;;;;;;20.14;61.91;101560.03;5082479;28;20052;-56
2022/07/29 10:33:31;;;;;;;17.05;7.03;;;;;;;20.11;62.25;101555.13;5091931;28;20044;-57
2022/07/29 10:36:08;;;;;;;63.08;31.13;;;;;;;20.16;62.29;101552.22;5086667;28;20040;-52
2022/07/29 10:38:58;;;;;;;29.20;3.50;;;;;;;20.20;59.36;101550.44;5078946;28;20036;-56
2022/07/29 10:41:57;;;;;;;10.75;4.22;;;;;;;20.23;59.69;101549.84;5087660;28;20098;-54
2022/07/29 10:44:26;;;;;;;9.65;3.38;;;;;;;20.30;58.43;101555.75;5092784;28;20503;-54
2022/07/29 10:46:55;;;;;;;9.07;3.67;;;;;;;20.37;58.19;101547.81;5086616;28;20047;-56
2022/07/29 10:49:27;;;;;;;9.85;3.80;;;;;;;20.40;58.46;101544.41;5084100;28;20058;-57
2022/07/29 10:52:09;;;;;;;11.23;4.70;;;;;;;20.45;58.21;101545.41;5081629;28;20123;-56
2022/07/29 10:54:45;;;;;;;9.15;3.60;;;;;;;20.45;57.30;101540.69;5076927;28;20090;-57
2022/07/29 10:57:24;;;;;;;11.93;4.25;;;;;;;20.41;59.01;101548.78;5086269;28;20089;-53
2022/07/29 11:00:15;;;;;;;10.82;4.22;;;;;;;20.53;58.63;101536.31;5083273;28;20078;-57
2022/07/29 11:02:47;;;;;;;12.55;4.45;;;;;;;20.54;58.31;101543.47;5096601;28;20450;-53
2022/07/29 11:05:19;;;;;;;8.88;4.07;;;;;;;20.59;59.04;101546.16;5095409;28;20040;-53
2022/07/29 11:08:08;;;;;;;7.35;3.78;;;;;;;20.68;59.54;101548.94;5090083;28;20044;-55
2022/07/29 11:10:47;;;;;;;11.02;4.25;;;;;;;20.70;58.77;101552.22;5095330;28;20131;-53
2022/07/29 11:13:40;;;;;;;9.63;3.90;;;;;;;20.65;58.61;101544.88;5096551;28;20051;-50
2022/07/29 11:16:09;;;;;;;10.73;4.15;;;;;;;20.67;58.30;101542.59;5108746;28;20513;-53
2022/07/29 11:19:10;;;;;;;8.35;3.60;;;;;;;20.70;57.06;101546.69;5096495;28;20051;-54
2022/07/29 11:21:39;;;;;;;5.97;2.80;;;;;;;20.73;56.66;101535.78;5085135;28;20555;-54
2022/07/29 11:24:28;;;;;;;8.73;3.55;;;;;;;20.78;56.90;101532.88;4388159;28;9999936;-53
2022/07/29 11:27:19;;;;;;;5.90;3.00;;;;;;;20.85;55.97;101533.25;5083462;28;20040;-52
2022/07/29 11:29:54;;;;;;;4.80;3.05;;;;;;;20.97;56.40;101529.84;5092610;28;20055;-56
2022/07/29 11:32:24;;;;;;;12.95;3.65;;;;;;;21.08;56.43;101535.91;5092469;28;20044;-55
2022/07/29 11:35:14;;;;;;;7.88;3.30;;;;;;;21.12;55.88;101539.66;5091368;28;20039;-55
2022/07/29 11:38:23;;;;;;;8.95;3.13;;;;;;;21.05;56.35;101533.78;5087864;28;20071;-52
2022/07/29 11:41:26;;;;;;;6.78;3.20;;;;;;;21.03;57.35;101530.50;5075016;28;20047;-55
2022/07/29 11:43:59;;;;;;;8.27;3.70;;;;;;;21.10;56.66;101536.41;5079522;28;20438;-55
2022/07/29 11:46:48;;;;;;;10.38;3.90;;;;;;;21.22;56.99;101533.00;5080513;28;20067;-53
2022/07/29 11:49:24;;;;;;;8.57;3.80;;;;;;;21.25;56.62;101529.59;5092625;28;20131;-52
2022/07/29 11:52:02;;;;;;;8.98;3.53;;;;;;;21.26;56.63;101537.59;5082053;28;20077;-54